sensor_id;sensor_type;location;lat;lon;timestamp;pressure;altitude;pressure_sealevel;temperature;humidity
7170;BME280;3626;42.656;23.312;2023-04-01T00:00:05;93664.59;;;10.02;74.77
7170;BME280;3626;42.656;23.312;2023-04-01T00:00:13;93670.56;;;10.02;74.50
7170;BME280;3626;42.656;23.312;2023-04-01T00:00:20;93663.78;;;10.01;74.37
7170;BME280;3626;42.656;23.312;2023-04-01T00:00:26;93673.94;;;10.03;74.64
7170;BME280;3626;42.656;23.312;2023-04-01T00:00:32;93671.34;;;10.03;74.31
7170;BME280;3626;42.656;23.312;2023-04-01T00:00:38;93675.53;;;10.04;74.84
7170;BME280;3626;42.656;23.312;2023-04-01T00:00:44;93667.59;;;10.06;74.37
7170;BME280;3626;42.656;23.312;2023-04-01T00:00:51;93668.38;;;10.06;74.27
7170;BME280;3626;42.656;23.312;2023-04-01T00:00:58;93670.97;;;10.06;74.24
7170;BME280;3626;42.656;23.312;2023-04-01T00:01:05;93671.75;;;10.07;74.04
7170;BME280;3626;42.656;23.312;2023-04-01T00:01:13;93674.34;;;10.07;74.02
7170;BME280;3626;42.656;23.312;2023-04-01T00:01:20;93666.59;;;10.07;74.01
7170;BME280;3626;42.656;23.312;2023-04-01T00:01:26;93668.38;;;10.06;74.16
7170;BME280;3626;42.656;23.312;2023-04-01T00:01:32;93674.34;;;10.07;74.11
7170;BME280;3626;42.656;23.312;2023-04-01T00:01:38;93666.81;;;10.05;74.15
7170;BME280;3626;42.656;23.312;2023-04-01T00:01:44;93669.38;;;10.05;74.17
7170;BME280;3626;42.656;23.312;2023-04-01T00:01:49;93666.00;;;10.05;73.92
7170;BME280;3626;42.656;23.312;2023-04-01T00:01:56;93670.16;;;10.06;74.09
7170;BME280;3626;42.656;23.312;2023-04-01T00:02:02;93671.97;;;10.05;73.98
7170;BME280;3626;42.656;23.312;2023-04-01T00:02:08;93668.38;;;10.06;74.23
7170;BME280;3626;42.656;23.312;2023-04-01T00:02:14;93669.19;;;10.07;74.25
7170;BME280;3626;42.656;23.312;2023-04-01T00:02:19;93664.03;;;10.07;74.62
7170;BME280;3626;42.656;23.312;2023-04-01T00:02:25;93670.81;;;10.08;74.34
7170;BME280;3626;42.656;23.312;2023-04-01T00:02:31;93667.22;;;10.09;74.54
7170;BME280;3626;42.656;23.312;2023-04-01T00:02:37;93670.81;;;10.08;74.62
7170;BME280;3626;42.656;23.312;2023-04-01T00:02:42;93667.44;;;10.07;74.62
7170;BME280;3626;42.656;23.312;2023-04-01T00:02:48;93669.00;;;10.08;74.55
7170;BME280;3626;42.656;23.312;2023-04-01T00:02:54;93673.19;;;10.09;74.54
7170;BME280;3626;42.656;23.312;2023-04-01T00:03:00;93670.41;;;10.11;74.37
7170;BME280;3626;42.656;23.312;2023-04-01T00:03:06;93667.81;;;10.11;74.69
7170;BME280;3626;42.656;23.312;2023-04-01T00:03:13;93672.03;;;10.12;74.73
7170;BME280;3626;42.656;23.312;2023-04-01T00:03:19;93674.41;;;10.13;75.32
7170;BME280;3626;42.656;23.312;2023-04-01T00:03:26;93677.78;;;10.14;75.11
7170;BME280;3626;42.656;23.312;2023-04-01T00:03:33;93668.25;;;10.14;75.27
7170;BME280;3626;42.656;23.312;2023-04-01T00:03:39;93676.78;;;10.15;75.58
7170;BME280;3626;42.656;23.312;2023-04-01T00:03:45;93673.25;;;10.16;75.16
7170;BME280;3626;42.656;23.312;2023-04-01T00:03:50;93670.66;;;10.16;75.66
7170;BME280;3626;42.656;23.312;2023-04-01T00:03:56;93668.88;;;10.16;75.77
7170;BME280;3626;42.656;23.312;2023-04-01T00:04:02;93676.78;;;10.15;75.68
7170;BME280;3626;42.656;23.312;2023-04-01T00:04:08;93678.41;;;10.16;75.48
7170;BME280;3626;42.656;23.312;2023-04-01T00:04:13;93668.09;;;10.16;75.94
7170;BME280;3626;42.656;23.312;2023-04-01T00:04:20;93671.63;;;10.15;75.81
7170;BME280;3626;42.656;23.312;2023-04-01T00:04:26;93677.59;;;10.15;76.02
7170;BME280;3626;42.656;23.312;2023-04-01T00:04:32;93676.78;;;10.15;76.26
7170;BME280;3626;42.656;23.312;2023-04-01T00:04:38;93682.75;;;10.15;76.06
7170;BME280;3626;42.656;23.312;2023-04-01T00:04:44;93673.25;;;10.16;75.87
7170;BME280;3626;42.656;23.312;2023-04-01T00:04:49;93675.03;;;10.15;76.14
7170;BME280;3626;42.656;23.312;2023-04-01T00:04:55;93672.44;;;10.15;76.12
7170;BME280;3626;42.656;23.312;2023-04-01T00:05:01;93677.59;;;10.15;76.24
7170;BME280;3626;42.656;23.312;2023-04-01T00:05:08;93676.00;;;10.14;75.85
7170;BME280;3626;42.656;23.312;2023-04-01T00:05:16;93671.81;;;10.13;76.23
7170;BME280;3626;42.656;23.312;2023-04-01T00:05:22;93671.81;;;10.13;75.77
7170;BME280;3626;42.656;23.312;2023-04-01T00:05:29;93674.41;;;10.13;76.25
7170;BME280;3626;42.656;23.312;2023-04-01T00:05:35;93672.81;;;10.12;76.16
7170;BME280;3626;42.656;23.312;2023-04-01T00:05:42;93672.19;;;10.10;76.08
7170;BME280;3626;42.656;23.312;2023-04-01T00:05:48;93667.22;;;10.09;76.03
7170;BME280;3626;42.656;23.312;2023-04-01T00:05:53;93670.81;;;10.08;75.73
7170;BME280;3626;42.656;23.312;2023-04-01T00:06:02;93670.97;;;10.06;75.59
7170;BME280;3626;42.656;23.312;2023-04-01T00:06:09;93669.81;;;10.09;75.91
7170;BME280;3626;42.656;23.312;2023-04-01T00:06:17;93672.59;;;10.07;75.87
7170;BME280;3626;42.656;23.312;2023-04-01T00:06:23;93667.22;;;10.09;75.71
7170;BME280;3626;42.656;23.312;2023-04-01T00:06:29;93673.19;;;10.09;75.51
7170;BME280;3626;42.656;23.312;2023-04-01T00:06:35;93674.97;;;10.09;75.91
7170;BME280;3626;42.656;23.312;2023-04-01T00:06:41;93670.81;;;10.08;75.41
7170;BME280;3626;42.656;23.312;2023-04-01T00:06:46;93671.75;;;10.07;75.66
7170;BME280;3626;42.656;23.312;2023-04-01T00:06:52;93675.94;;;10.08;75.39
7170;BME280;3626;42.656;23.312;2023-04-01T00:07:01;93681.13;;;10.08;75.32
7170;BME280;3626;42.656;23.312;2023-04-01T00:07:07;93674.34;;;10.07;75.61
7170;BME280;3626;42.656;23.312;2023-04-01T00:07:13;93674.34;;;10.07;75.54
7170;BME280;3626;42.656;23.312;2023-04-01T00:07:18;93674.34;;;10.07;75.49
7170;BME280;3626;42.656;23.312;2023-04-01T00:07:24;93676.13;;;10.06;75.18
7170;BME280;3626;42.656;23.312;2023-04-01T00:07:30;93679.50;;;10.07;74.97
7170;BME280;3626;42.656;23.312;2023-04-01T00:07:38;93674.34;;;10.07;75.18
7170;BME280;3626;42.656;23.312;2023-04-01T00:07:44;93675.31;;;10.06;75.37
7170;BME280;3626;42.656;23.312;2023-04-01T00:07:51;93678.69;;;10.06;75.27
7170;BME280;3626;42.656;23.312;2023-04-01T00:07:57;93682.28;;;10.05;75.44
7170;BME280;3626;42.656;23.312;2023-04-01T00:08:03;93671.16;;;10.05;75.26
7170;BME280;3626;42.656;23.312;2023-04-01T00:08:08;93676.31;;;10.05;75.42
7170;BME280;3626;42.656;23.312;2023-04-01T00:08:15;93677.13;;;10.05;75.24
7170;BME280;3626;42.656;23.312;2023-04-01T00:08:21;93679.69;;;10.05;75.74
7170;BME280;3626;42.656;23.312;2023-04-01T00:08:28;93680.47;;;10.06;75.35
7170;BME280;3626;42.656;23.312;2023-04-01T00:08:34;93677.13;;;10.05;75.46
7170;BME280;3626;42.656;23.312;2023-04-01T00:08:40;93683.06;;;10.06;75.34
7170;BME280;3626;42.656;23.312;2023-04-01T00:08:46;93679.50;;;10.07;75.74
7170;BME280;3626;42.656;23.312;2023-04-01T00:08:51;93687.22;;;10.07;75.33
7170;BME280;3626;42.656;23.312;2023-04-01T00:08:58;93676.13;;;10.06;75.43
7170;BME280;3626;42.656;23.312;2023-04-01T00:09:04;93675.16;;;10.07;75.49
7170;BME280;3626;42.656;23.312;2023-04-01T00:09:10;93681.91;;;10.08;75.44
7170;BME280;3626;42.656;23.312;2023-04-01T00:09:15;93676.75;;;10.08;75.44
7170;BME280;3626;42.656;23.312;2023-04-01T00:09:21;93673.19;;;10.09;75.57
7170;BME280;3626;42.656;23.312;2023-04-01T00:09:28;93673.97;;;10.10;75.81
7170;BME280;3626;42.656;23.312;2023-04-01T00:09:33;93678.13;;;10.11;75.38
7170;BME280;3626;42.656;23.312;2023-04-01T00:09:40;93673.97;;;10.10;75.40
7170;BME280;3626;42.656;23.312;2023-04-01T00:09:46;93679.94;;;10.10;75.55
7170;BME280;3626;42.656;23.312;2023-04-01T00:09:52;93685.09;;;10.10;75.89
7170;BME280;3626;42.656;23.312;2023-04-01T00:09:58;93682.34;;;10.12;75.71
7170;BME280;3626;42.656;23.312;2023-04-01T00:10:04;93684.91;;;10.12;75.78
7170;BME280;3626;42.656;23.312;2023-04-01T00:10:11;93681.34;;;10.13;75.84
7170;BME280;3626;42.656;23.312;2023-04-01T00:10:19;93674.41;;;10.13;75.39
7170;BME280;3626;42.656;23.312;2023-04-01T00:10:24;93677.78;;;10.14;75.70
7170;BME280;3626;42.656;23.312;2023-04-01T00:10:30;93675.19;;;10.14;75.76
7170;BME280;3626;42.656;23.312;2023-04-01T00:10:36;93676.00;;;10.14;75.77
7170;BME280;3626;42.656;23.312;2023-04-01T00:10:42;93677.59;;;10.15;75.55
7170;BME280;3626;42.656;23.312;2023-04-01T00:10:48;93678.41;;;10.16;75.69
7170;BME280;3626;42.656;23.312;2023-04-01T00:10:54;93680.78;;;10.17;75.51
7170;BME280;3626;42.656;23.312;2023-04-01T00:11:00;93678.19;;;10.17;75.40
7170;BME280;3626;42.656;23.312;2023-04-01T00:11:07;93673.84;;;10.18;75.68
7170;BME280;3626;42.656;23.312;2023-04-01T00:11:13;93681.56;;;10.18;75.68
7170;BME280;3626;42.656;23.312;2023-04-01T00:11:20;93676.22;;;10.19;75.38
7170;BME280;3626;42.656;23.312;2023-04-01T00:11:26;93681.38;;;10.19;75.51
7170;BME280;3626;42.656;23.312;2023-04-01T00:11:33;93674.63;;;10.18;75.33
7170;BME280;3626;42.656;23.312;2023-04-01T00:11:38;93679.78;;;10.18;75.05
7170;BME280;3626;42.656;23.312;2023-04-01T00:11:44;93677.22;;;10.18;75.35
7170;BME280;3626;42.656;23.312;2023-04-01T00:11:50;93672.06;;;10.18;75.38
7170;BME280;3626;42.656;23.312;2023-04-01T00:11:56;93670.28;;;10.19;75.17
7170;BME280;3626;42.656;23.312;2023-04-01T00:12:02;93673.66;;;10.19;74.84
7170;BME280;3626;42.656;23.312;2023-04-01T00:12:08;93672.84;;;10.19;75.31
7170;BME280;3626;42.656;23.312;2023-04-01T00:12:14;93673.66;;;10.19;75.11
7170;BME280;3626;42.656;23.312;2023-04-01T00:12:19;93678.81;;;10.19;75.23
7170;BME280;3626;42.656;23.312;2023-04-01T00:12:25;93673.66;;;10.19;74.93
7170;BME280;3626;42.656;23.312;2023-04-01T00:12:31;93674.47;;;10.20;74.78
7170;BME280;3626;42.656;23.312;2023-04-01T00:12:39;93670.91;;;10.21;75.02
7170;BME280;3626;42.656;23.312;2023-04-01T00:12:45;93672.50;;;10.22;75.09
7170;BME280;3626;42.656;23.312;2023-04-01T00:12:52;93672.50;;;10.22;74.90
7170;BME280;3626;42.656;23.312;2023-04-01T00:12:58;93673.28;;;10.22;75.01
7170;BME280;3626;42.656;23.312;2023-04-01T00:13:04;93665.53;;;10.22;74.76
7170;BME280;3626;42.656;23.312;2023-04-01T00:13:12;93667.34;;;10.22;74.42
7170;BME280;3626;42.656;23.312;2023-04-01T00:13:18;93671.69;;;10.21;74.65
7170;BME280;3626;42.656;23.312;2023-04-01T00:13:25;93676.06;;;10.21;74.65
7170;BME280;3626;42.656;23.312;2023-04-01T00:13:31;93676.22;;;10.19;74.70
7170;BME280;3626;42.656;23.312;2023-04-01T00:13:37;93672.84;;;10.19;74.46
7170;BME280;3626;42.656;23.312;2023-04-01T00:13:43;93670.28;;;10.19;74.56
7170;BME280;3626;42.656;23.312;2023-04-01T00:13:49;93671.25;;;10.18;74.25
7170;BME280;3626;42.656;23.312;2023-04-01T00:13:57;93672.06;;;10.18;74.13
7170;BME280;3626;42.656;23.312;2023-04-01T00:14:02;93673.03;;;10.17;74.16
7170;BME280;3626;42.656;23.312;2023-04-01T00:14:08;93668.09;;;10.16;74.24
7170;BME280;3626;42.656;23.312;2023-04-01T00:14:15;93675.81;;;10.16;74.25
7170;BME280;3626;42.656;23.312;2023-04-01T00:14:21;93668.25;;;10.14;74.31
7170;BME280;3626;42.656;23.312;2023-04-01T00:14:27;93672.63;;;10.14;74.23
7170;BME280;3626;42.656;23.312;2023-04-01T00:14:33;93665.88;;;10.13;74.41
7170;BME280;3626;42.656;23.312;2023-04-01T00:14:40;93677.97;;;10.12;74.01
7170;BME280;3626;42.656;23.312;2023-04-01T00:14:45;93673.63;;;10.13;74.23
7170;BME280;3626;42.656;23.312;2023-04-01T00:14:51;93676.19;;;10.13;74.48
7170;BME280;3626;42.656;23.312;2023-04-01T00:14:57;93667.66;;;10.12;74.03
7170;BME280;3626;42.656;23.312;2023-04-01T00:15:04;93677.19;;;10.12;74.44
7170;BME280;3626;42.656;23.312;2023-04-01T00:15:11;93676.38;;;10.11;74.47
7170;BME280;3626;42.656;23.312;2023-04-01T00:15:17;93672.03;;;10.12;74.41
7170;BME280;3626;42.656;23.312;2023-04-01T00:15:23;93673.63;;;10.13;74.79
7170;BME280;3626;42.656;23.312;2023-04-01T00:15:29;93674.41;;;10.13;74.31
7170;BME280;3626;42.656;23.312;2023-04-01T00:15:35;93677.78;;;10.14;74.50
7170;BME280;3626;42.656;23.312;2023-04-01T00:15:41;93680.34;;;10.14;74.46
7170;BME280;3626;42.656;23.312;2023-04-01T00:15:47;93675.19;;;10.14;74.63
7170;BME280;3626;42.656;23.312;2023-04-01T00:15:54;93670.03;;;10.14;74.39
7170;BME280;3626;42.656;23.312;2023-04-01T00:16:00;93674.22;;;10.15;74.59
7170;BME280;3626;42.656;23.312;2023-04-01T00:16:07;93678.56;;;10.14;74.42
7170;BME280;3626;42.656;23.312;2023-04-01T00:16:14;93675.03;;;10.15;74.31
7170;BME280;3626;42.656;23.312;2023-04-01T00:16:20;93674.03;;;10.16;74.27
7170;BME280;3626;42.656;23.312;2023-04-01T00:16:26;93672.25;;;10.17;74.40
7170;BME280;3626;42.656;23.312;2023-04-01T00:16:32;93673.84;;;10.18;74.50
7170;BME280;3626;42.656;23.312;2023-04-01T00:16:38;93678.00;;;10.19;74.61
7170;BME280;3626;42.656;23.312;2023-04-01T00:16:43;93672.06;;;10.18;74.65
7170;BME280;3626;42.656;23.312;2023-04-01T00:16:49;93667.69;;;10.19;74.21
7170;BME280;3626;42.656;23.312;2023-04-01T00:16:55;93666.91;;;10.18;74.15
7170;BME280;3626;42.656;23.312;2023-04-01T00:17:01;93676.41;;;10.18;74.31
7170;BME280;3626;42.656;23.312;2023-04-01T00:17:08;93673.03;;;10.17;74.57
7170;BME280;3626;42.656;23.312;2023-04-01T00:17:14;93668.09;;;10.16;74.66
7170;BME280;3626;42.656;23.312;2023-04-01T00:17:23;93670.47;;;10.17;74.50
7170;BME280;3626;42.656;23.312;2023-04-01T00:17:29;93670.66;;;10.16;74.18
7170;BME280;3626;42.656;23.312;2023-04-01T00:17:35;93672.44;;;10.15;74.50
7170;BME280;3626;42.656;23.312;2023-04-01T00:17:41;93673.25;;;10.16;74.33
7170;BME280;3626;42.656;23.312;2023-04-01T00:17:47;93667.09;;;10.17;74.65
7170;BME280;3626;42.656;23.312;2023-04-01T00:17:52;93667.88;;;10.17;74.24
7170;BME280;3626;42.656;23.312;2023-04-01T00:17:59;93671.25;;;10.18;74.86
7170;BME280;3626;42.656;23.312;2023-04-01T00:18:06;93669.31;;;10.20;74.71
7170;BME280;3626;42.656;23.312;2023-04-01T00:18:12;93669.47;;;10.18;74.44
7170;BME280;3626;42.656;23.312;2023-04-01T00:18:18;93676.22;;;10.19;74.51
7170;BME280;3626;42.656;23.312;2023-04-01T00:18:24;93669.47;;;10.18;74.72
7170;BME280;3626;42.656;23.312;2023-04-01T00:18:30;93678.00;;;10.19;74.65
7170;BME280;3626;42.656;23.312;2023-04-01T00:18:36;93679.00;;;10.18;74.43
7170;BME280;3626;42.656;23.312;2023-04-01T00:18:41;93676.41;;;10.18;74.62
7170;BME280;3626;42.656;23.312;2023-04-01T00:18:48;93674.84;;;10.17;74.86
7170;BME280;3626;42.656;23.312;2023-04-01T00:18:54;93683.38;;;10.17;74.72
7170;BME280;3626;42.656;23.312;2023-04-01T00:19:00;93681.56;;;10.18;75.13
7170;BME280;3626;42.656;23.312;2023-04-01T00:19:06;93683.38;;;10.17;74.82
7170;BME280;3626;42.656;23.312;2023-04-01T00:19:12;93682.56;;;10.17;74.96
7170;BME280;3626;42.656;23.312;2023-04-01T00:19:20;93682.75;;;10.15;75.20
7170;BME280;3626;42.656;23.312;2023-04-01T00:19:26;93680.34;;;10.14;75.16
7170;BME280;3626;42.656;23.312;2023-04-01T00:19:31;93674.41;;;10.13;75.36
7170;BME280;3626;42.656;23.312;2023-04-01T00:19:37;93682.13;;;10.13;75.21
7170;BME280;3626;42.656;23.312;2023-04-01T00:19:43;93683.94;;;10.13;75.43
7170;BME280;3626;42.656;23.312;2023-04-01T00:19:49;93682.13;;;10.13;75.23
7170;BME280;3626;42.656;23.312;2023-04-01T00:19:55;93684.72;;;10.13;75.32
7170;BME280;3626;42.656;23.312;2023-04-01T00:20:02;93681.34;;;10.13;75.43
7170;BME280;3626;42.656;23.312;2023-04-01T00:20:08;93678.56;;;10.14;75.73
7170;BME280;3626;42.656;23.312;2023-04-01T00:20:14;93681.16;;;10.14;75.61
7170;BME280;3626;42.656;23.312;2023-04-01T00:20:20;93685.50;;;10.14;75.81
7170;BME280;3626;42.656;23.312;2023-04-01T00:20:28;93678.41;;;10.16;75.61
7170;BME280;3626;42.656;23.312;2023-04-01T00:20:34;93682.75;;;10.15;75.71
7170;BME280;3626;42.656;23.312;2023-04-01T00:20:46;93679.19;;;10.16;75.60
7170;BME280;3626;42.656;23.312;2023-04-01T00:20:53;93685.16;;;10.17;75.57
7170;BME280;3626;42.656;23.312;2023-04-01T00:20:59;93684.34;;;10.16;75.59
7170;BME280;3626;42.656;23.312;2023-04-01T00:21:05;93678.41;;;10.16;75.47
7170;BME280;3626;42.656;23.312;2023-04-01T00:21:11;93686.94;;;10.16;75.70
7170;BME280;3626;42.656;23.312;2023-04-01T00:21:17;93680.19;;;10.15;75.55
7170;BME280;3626;42.656;23.312;2023-04-01T00:21:25;93681.94;;;10.15;75.72
7170;BME280;3626;42.656;23.312;2023-04-01T00:21:31;93686.31;;;10.14;75.32
7170;BME280;3626;42.656;23.312;2023-04-01T00:21:37;93683.72;;;10.14;75.17
7170;BME280;3626;42.656;23.312;2023-04-01T00:21:43;93683.72;;;10.14;75.60
7170;BME280;3626;42.656;23.312;2023-04-01T00:21:49;93678.78;;;10.13;75.49
7170;BME280;3626;42.656;23.312;2023-04-01T00:21:57;93686.50;;;10.13;75.47
7170;BME280;3626;42.656;23.312;2023-04-01T00:22:05;93683.13;;;10.12;75.44
7170;BME280;3626;42.656;23.312;2023-04-01T00:22:11;93682.34;;;10.12;75.69
7170;BME280;3626;42.656;23.312;2023-04-01T00:22:17;93684.91;;;10.12;75.96
7170;BME280;3626;42.656;23.312;2023-04-01T00:22:23;93684.28;;;10.10;75.62
7170;BME280;3626;42.656;23.312;2023-04-01T00:22:30;93682.69;;;10.09;75.63
7170;BME280;3626;42.656;23.312;2023-04-01T00:22:35;93685.28;;;10.09;75.81
7170;BME280;3626;42.656;23.312;2023-04-01T00:22:43;93689.63;;;10.08;75.74
7170;BME280;3626;42.656;23.312;2023-04-01T00:22:49;93691.44;;;10.08;75.84
7170;BME280;3626;42.656;23.312;2023-04-01T00:22:55;93684.66;;;10.07;75.42
7170;BME280;3626;42.656;23.312;2023-04-01T00:23:01;93693.00;;;10.09;75.49
7170;BME280;3626;42.656;23.312;2023-04-01T00:23:07;93692.22;;;10.08;75.63
7170;BME280;3626;42.656;23.312;2023-04-01T00:23:13;93685.28;;;10.09;75.17
7170;BME280;3626;42.656;23.312;2023-04-01T00:23:19;93688.06;;;10.07;75.27
7170;BME280;3626;42.656;23.312;2023-04-01T00:23:25;93685.47;;;10.07;75.23
7170;BME280;3626;42.656;23.312;2023-04-01T00:23:32;93692.22;;;10.08;74.84
7170;BME280;3626;42.656;23.312;2023-04-01T00:23:38;93687.06;;;10.08;75.01
7170;BME280;3626;42.656;23.312;2023-04-01T00:23:44;93686.28;;;10.08;75.03
7170;BME280;3626;42.656;23.312;2023-04-01T00:23:50;93682.91;;;10.07;74.60
7170;BME280;3626;42.656;23.312;2023-04-01T00:23:56;93684.66;;;10.07;74.73
7170;BME280;3626;42.656;23.312;2023-04-01T00:24:03;93684.84;;;10.05;74.66
7170;BME280;3626;42.656;23.312;2023-04-01T00:24:09;93687.44;;;10.05;74.35
7170;BME280;3626;42.656;23.312;2023-04-01T00:24:15;93691.78;;;10.05;74.13
7170;BME280;3626;42.656;23.312;2023-04-01T00:24:21;93694.38;;;10.05;74.02
7170;BME280;3626;42.656;23.312;2023-04-01T00:24:26;93691.78;;;10.05;73.94
7170;BME280;3626;42.656;23.312;2023-04-01T00:24:32;93690.00;;;10.05;74.31
7170;BME280;3626;42.656;23.312;2023-04-01T00:24:38;93690.19;;;10.04;74.71
7170;BME280;3626;42.656;23.312;2023-04-01T00:24:44;93694.38;;;10.05;74.55
7170;BME280;3626;42.656;23.312;2023-04-01T00:24:51;93688.41;;;10.04;74.15
7170;BME280;3626;42.656;23.312;2023-04-01T00:24:57;93690.19;;;10.04;74.29
7170;BME280;3626;42.656;23.312;2023-04-01T00:25:03;93701.31;;;10.04;74.20
7170;BME280;3626;42.656;23.312;2023-04-01T00:25:10;93697.13;;;10.03;74.99
7170;BME280;3626;42.656;23.312;2023-04-01T00:25:16;93687.78;;;10.02;74.42
7170;BME280;3626;42.656;23.312;2023-04-01T00:25:22;93689.56;;;10.01;74.58
7170;BME280;3626;42.656;23.312;2023-04-01T00:25:28;93695.72;;;10.00;74.61
7170;BME280;3626;42.656;23.312;2023-04-01T00:25:34;93692.34;;;10.00;74.38
7170;BME280;3626;42.656;23.312;2023-04-01T00:25:40;93688.19;;;9.99;74.62
7170;BME280;3626;42.656;23.312;2023-04-01T00:25:46;93697.69;;;9.98;74.73
7170;BME280;3626;42.656;23.312;2023-04-01T00:25:53;93687.38;;;9.98;74.40
7170;BME280;3626;42.656;23.312;2023-04-01T00:25:59;93687.19;;;10.00;74.51
7170;BME280;3626;42.656;23.312;2023-04-01T00:26:05;93694.72;;;10.01;74.96
7170;BME280;3626;42.656;23.312;2023-04-01T00:26:13;93697.13;;;10.03;74.37
7170;BME280;3626;42.656;23.312;2023-04-01T00:26:24;93692.78;;;10.04;74.93
7170;BME280;3626;42.656;23.312;2023-04-01T00:26:30;93692.78;;;10.04;74.53
7170;BME280;3626;42.656;23.312;2023-04-01T00:26:36;93696.16;;;10.04;75.05
7170;BME280;3626;42.656;23.312;2023-04-01T00:26:42;93695.94;;;10.06;74.78
7170;BME280;3626;42.656;23.312;2023-04-01T00:26:47;93685.63;;;10.06;75.00
7170;BME280;3626;42.656;23.312;2023-04-01T00:26:54;93702.69;;;10.07;75.01
7170;BME280;3626;42.656;23.312;2023-04-01T00:27:00;93695.78;;;10.07;74.66
7170;BME280;3626;42.656;23.312;2023-04-01T00:27:06;93695.78;;;10.07;75.03
7170;BME280;3626;42.656;23.312;2023-04-01T00:27:13;93701.72;;;10.08;74.97
7170;BME280;3626;42.656;23.312;2023-04-01T00:27:19;93696.59;;;10.08;74.57
7170;BME280;3626;42.656;23.312;2023-04-01T00:27:26;93696.59;;;10.08;74.67
7170;BME280;3626;42.656;23.312;2023-04-01T00:27:31;93694.00;;;10.08;74.63
7170;BME280;3626;42.656;23.312;2023-04-01T00:27:39;93696.38;;;10.09;75.09
7170;BME280;3626;42.656;23.312;2023-04-01T00:27:45;93695.59;;;10.09;75.08
7170;BME280;3626;42.656;23.312;2023-04-01T00:27:51;93698.97;;;10.09;74.99
7170;BME280;3626;42.656;23.312;2023-04-01T00:27:56;93687.84;;;10.09;75.24
7170;BME280;3626;42.656;23.312;2023-04-01T00:28:02;93694.59;;;10.10;75.09
7170;BME280;3626;42.656;23.312;2023-04-01T00:28:09;93688.66;;;10.09;75.25
7170;BME280;3626;42.656;23.312;2023-04-01T00:28:15;93685.09;;;10.10;74.61
7170;BME280;3626;42.656;23.312;2023-04-01T00:28:22;93694.44;;;10.11;75.03
7170;BME280;3626;42.656;23.312;2023-04-01T00:28:30;93691.84;;;10.11;74.84
7170;BME280;3626;42.656;23.312;2023-04-01T00:28:36;93695.22;;;10.12;74.71
7170;BME280;3626;42.656;23.312;2023-04-01T00:28:42;93696.03;;;10.12;74.62
7170;BME280;3626;42.656;23.312;2023-04-01T00:28:48;93690.88;;;10.12;75.26
7170;BME280;3626;42.656;23.312;2023-04-01T00:28:54;93694.22;;;10.13;74.94
7170;BME280;3626;42.656;23.312;2023-04-01T00:29:00;93689.06;;;10.13;74.80
7170;BME280;3626;42.656;23.312;2023-04-01T00:29:06;93685.50;;;10.14;74.99
7170;BME280;3626;42.656;23.312;2023-04-01T00:29:12;93686.31;;;10.14;75.15
7170;BME280;3626;42.656;23.312;2023-04-01T00:29:18;93685.34;;;10.15;74.86
7170;BME280;3626;42.656;23.312;2023-04-01T00:29:23;93695.47;;;10.17;75.14
7170;BME280;3626;42.656;23.312;2023-04-01T00:29:34;93684.34;;;10.16;75.15
7170;BME280;3626;42.656;23.312;2023-04-01T00:29:42;93689.50;;;10.16;75.01
7170;BME280;3626;42.656;23.312;2023-04-01T00:29:47;93679.19;;;10.16;75.30
7170;BME280;3626;42.656;23.312;2023-04-01T00:29:53;93683.38;;;10.17;74.87
7170;BME280;3626;42.656;23.312;2023-04-01T00:29:59;93680.00;;;10.17;75.35
7170;BME280;3626;42.656;23.312;2023-04-01T00:30:07;93680.00;;;10.17;75.19
7170;BME280;3626;42.656;23.312;2023-04-01T00:30:14;93686.72;;;10.18;75.15
7170;BME280;3626;42.656;23.312;2023-04-01T00:30:20;93685.94;;;10.17;75.19
7170;BME280;3626;42.656;23.312;2023-04-01T00:30:25;93681.78;;;10.16;75.21
7170;BME280;3626;42.656;23.312;2023-04-01T00:30:31;93683.56;;;10.16;75.18
7170;BME280;3626;42.656;23.312;2023-04-01T00:30:37;93675.81;;;10.16;75.19
7170;BME280;3626;42.656;23.312;2023-04-01T00:30:43;93682.56;;;10.17;75.47
7170;BME280;3626;42.656;23.312;2023-04-01T00:30:48;93682.56;;;10.17;75.36
7170;BME280;3626;42.656;23.312;2023-04-01T00:30:54;93683.56;;;10.16;75.24
7170;BME280;3626;42.656;23.312;2023-04-01T00:31:04;93685.16;;;10.17;74.98
7170;BME280;3626;42.656;23.312;2023-04-01T00:31:10;93687.72;;;10.17;74.93
7170;BME280;3626;42.656;23.312;2023-04-01T00:31:19;93680.00;;;10.17;75.20
7170;BME280;3626;42.656;23.312;2023-04-01T00:31:25;93685.94;;;10.17;74.93
7170;BME280;3626;42.656;23.312;2023-04-01T00:31:31;93686.72;;;10.18;74.75
7170;BME280;3626;42.656;23.312;2023-04-01T00:31:37;93684.94;;;10.18;74.97
7170;BME280;3626;42.656;23.312;2023-04-01T00:31:42;93686.72;;;10.18;74.98
7170;BME280;3626;42.656;23.312;2023-04-01T00:31:48;93680.78;;;10.17;74.87
7170;BME280;3626;42.656;23.312;2023-04-01T00:31:55;93679.19;;;10.16;74.59
7170;BME280;3626;42.656;23.312;2023-04-01T00:32:01;93685.94;;;10.17;74.67
7170;BME280;3626;42.656;23.312;2023-04-01T00:32:06;93684.16;;;10.18;74.81
7170;BME280;3626;42.656;23.312;2023-04-01T00:32:12;93682.38;;;10.18;74.73
7170;BME280;3626;42.656;23.312;2023-04-01T00:32:18;93691.09;;;10.17;74.21
7170;BME280;3626;42.656;23.312;2023-04-01T00:32:24;93686.72;;;10.18;74.43
7170;BME280;3626;42.656;23.312;2023-04-01T00:32:31;93689.31;;;10.18;74.54
7170;BME280;3626;42.656;23.312;2023-04-01T00:32:37;93686.72;;;10.18;74.49
7170;BME280;3626;42.656;23.312;2023-04-01T00:32:43;93685.94;;;10.17;74.45
7170;BME280;3626;42.656;23.312;2023-04-01T00:32:51;93686.72;;;10.18;74.50
7170;BME280;3626;42.656;23.312;2023-04-01T00:32:57;93684.16;;;10.18;74.26
7170;BME280;3626;42.656;23.312;2023-04-01T00:33:02;93683.38;;;10.17;74.05
7170;BME280;3626;42.656;23.312;2023-04-01T00:33:08;93684.16;;;10.18;74.18
7170;BME280;3626;42.656;23.312;2023-04-01T00:33:15;93692.69;;;10.18;74.00
7170;BME280;3626;42.656;23.312;2023-04-01T00:33:21;93688.31;;;10.19;73.77
7170;BME280;3626;42.656;23.312;2023-04-01T00:33:27;93685.75;;;10.19;74.02
7170;BME280;3626;42.656;23.312;2023-04-01T00:33:33;93692.69;;;10.18;74.03
7170;BME280;3626;42.656;23.312;2023-04-01T00:33:39;93691.88;;;10.18;74.21
7170;BME280;3626;42.656;23.312;2023-04-01T00:33:45;93688.31;;;10.19;74.10